sensor_id;sensor_type;location;lat;lon;timestamp;temperature;humidity
16846;DHT22;8539;53.188;8.696;2023-11-22T00:00:26;2.90;99.90
16846;DHT22;8539;53.188;8.696;2023-11-22T00:02:52;2.90;99.90
16846;DHT22;8539;53.188;8.696;2023-11-22T00:05:19;2.80;99.90
16846;DHT22;8539;53.188;8.696;2023-11-22T00:07:45;2.80;99.90
16846;DHT22;8539;53.188;8.696;2023-11-22T00:10:11;2.80;99.90
16846;DHT22;8539;53.188;8.696;2023-11-22T00:12:37;2.80;99.90
16846;DHT22;8539;53.188;8.696;2023-11-22T00:15:07;2.80;99.90
16846;DHT22;8539;53.188;8.696;2023-11-22T00:17:34;2.70;99.90
16846;DHT22;8539;53.188;8.696;2023-11-22T00:20:01;2.70;99.90
16846;DHT22;8539;53.188;8.696;2023-11-22T00:22:32;2.70;99.90
16846;DHT22;8539;53.188;8.696;2023-11-22T00:24:59;2.70;99.90
16846;DHT22;8539;53.188;8.696;2023-11-22T00:27:30;2.70;99.90
16846;DHT22;8539;53.188;8.696;2023-11-22T00:29:58;2.60;99.90
16846;DHT22;8539;53.188;8.696;2023-11-22T00:32:24;2.60;99.90
16846;DHT22;8539;53.188;8.696;2023-11-22T00:34:54;2.50;99.90
16846;DHT22;8539;53.188;8.696;2023-11-22T00:37:21;2.50;99.90
16846;DHT22;8539;53.188;8.696;2023-11-22T00:39:47;2.40;99.90
16846;DHT22;8539;53.188;8.696;2023-11-22T00:42:17;2.30;99.90
16846;DHT22;8539;53.188;8.696;2023-11-22T00:44:46;2.30;99.90
16846;DHT22;8539;53.188;8.696;2023-11-22T00:47:13;2.30;99.90
16846;DHT22;8539;53.188;8.696;2023-11-22T00:49:42;2.20;99.90
16846;DHT22;8539;53.188;8.696;2023-11-22T00:52:10;2.20;99.90
16846;DHT22;8539;53.188;8.696;2023-11-22T00:54:36;2.20;99.90
16846;DHT22;8539;53.188;8.696;2023-11-22T00:57:03;2.10;99.90
16846;DHT22;8539;53.188;8.696;2023-11-22T00:59:29;2.10;99.90
16846;DHT22;8539;53.188;8.696;2023-11-22T01:01:55;2.10;99.90
16846;DHT22;8539;53.188;8.696;2023-11-22T01:04:22;2.00;99.90
16846;DHT22;8539;53.188;8.696;2023-11-22T01:06:48;2.00;99.90
16846;DHT22;8539;53.188;8.696;2023-11-22T01:09:14;1.90;99.90
16846;DHT22;8539;53.188;8.696;2023-11-22T01:11:41;1.90;99.90
16846;DHT22;8539;53.188;8.696;2023-11-22T01:14:10;1.80;99.90
16846;DHT22;8539;53.188;8.696;2023-11-22T01:16:36;1.70;99.90
16846;DHT22;8539;53.188;8.696;2023-11-22T01:19:02;1.70;99.90
16846;DHT22;8539;53.188;8.696;2023-11-22T01:21:29;1.60;99.90
16846;DHT22;8539;53.188;8.696;2023-11-22T01:23:56;1.60;99.90
16846;DHT22;8539;53.188;8.696;2023-11-22T01:26:29;1.50;99.90
16846;DHT22;8539;53.188;8.696;2023-11-22T01:28:56;1.50;99.90
16846;DHT22;8539;53.188;8.696;2023-11-22T01:31:23;1.50;99.90
16846;DHT22;8539;53.188;8.696;2023-11-22T01:33:49;1.50;99.90
16846;DHT22;8539;53.188;8.696;2023-11-22T01:36:16;1.50;99.90
16846;DHT22;8539;53.188;8.696;2023-11-22T01:38:42;1.50;99.90
16846;DHT22;8539;53.188;8.696;2023-11-22T01:41:10;1.60;99.90
16846;DHT22;8539;53.188;8.696;2023-11-22T01:43:39;1.50;99.90
16846;DHT22;8539;53.188;8.696;2023-11-22T01:46:07;1.50;99.90
16846;DHT22;8539;53.188;8.696;2023-11-22T01:48:35;1.50;99.90
16846;DHT22;8539;53.188;8.696;2023-11-22T01:51:04;1.40;99.90
16846;DHT22;8539;53.188;8.696;2023-11-22T01:53:32;1.40;99.90
16846;DHT22;8539;53.188;8.696;2023-11-22T01:55:59;1.40;99.90
16846;DHT22;8539;53.188;8.696;2023-11-22T01:58:26;1.30;99.90
16846;DHT22;8539;53.188;8.696;2023-11-22T02:00:53;1.30;99.90
16846;DHT22;8539;53.188;8.696;2023-11-22T02:03:20;1.20;99.90
16846;DHT22;8539;53.188;8.696;2023-11-22T02:05:50;1.10;99.90
16846;DHT22;8539;53.188;8.696;2023-11-22T02:08:16;1.10;99.90
16846;DHT22;8539;53.188;8.696;2023-11-22T02:10:44;1.10;99.90
16846;DHT22;8539;53.188;8.696;2023-11-22T02:13:13;1.00;99.90
16846;DHT22;8539;53.188;8.696;2023-11-22T02:15:39;1.00;99.90
16846;DHT22;8539;53.188;8.696;2023-11-22T02:18:05;0.90;99.90
16846;DHT22;8539;53.188;8.696;2023-11-22T02:20:34;0.90;99.90
16846;DHT22;8539;53.188;8.696;2023-11-22T02:23:10;0.80;99.90
16846;DHT22;8539;53.188;8.696;2023-11-22T02:25:37;0.80;99.90
16846;DHT22;8539;53.188;8.696;2023-11-22T02:28:03;0.70;99.90
16846;DHT22;8539;53.188;8.696;2023-11-22T02:30:29;0.70;99.90
16846;DHT22;8539;53.188;8.696;2023-11-22T02:32:55;0.70;99.90
16846;DHT22;8539;53.188;8.696;2023-11-22T02:35:22;0.60;99.90
16846;DHT22;8539;53.188;8.696;2023-11-22T02:37:48;0.60;99.90
16846;DHT22;8539;53.188;8.696;2023-11-22T02:42:51;0.60;99.90
16846;DHT22;8539;53.188;8.696;2023-11-22T02:45:20;0.50;99.90
16846;DHT22;8539;53.188;8.696;2023-11-22T02:47:48;0.50;99.90
16846;DHT22;8539;53.188;8.696;2023-11-22T02:50:16;0.50;99.90
16846;DHT22;8539;53.188;8.696;2023-11-22T02:52:42;0.50;99.90
16846;DHT22;8539;53.188;8.696;2023-11-22T02:55:09;0.50;99.90
16846;DHT22;8539;53.188;8.696;2023-11-22T02:57:36;0.50;99.90
16846;DHT22;8539;53.188;8.696;2023-11-22T03:00:09;0.50;99.90
16846;DHT22;8539;53.188;8.696;2023-11-22T03:02:39;0.40;99.90
16846;DHT22;8539;53.188;8.696;2023-11-22T03:05:08;0.40;99.90
16846;DHT22;8539;53.188;8.696;2023-11-22T03:07:35;0.40;99.90
16846;DHT22;8539;53.188;8.696;2023-11-22T03:10:03;0.40;99.90
16846;DHT22;8539;53.188;8.696;2023-11-22T03:12:29;0.40;99.90
16846;DHT22;8539;53.188;8.696;2023-11-22T03:14:55;0.30;99.90
16846;DHT22;8539;53.188;8.696;2023-11-22T03:17:29;0.30;99.90
16846;DHT22;8539;53.188;8.696;2023-11-22T03:19:56;0.30;99.90
16846;DHT22;8539;53.188;8.696;2023-11-22T03:22:26;0.30;99.90
16846;DHT22;8539;53.188;8.696;2023-11-22T03:24:56;0.30;99.90
16846;DHT22;8539;53.188;8.696;2023-11-22T03:27:24;0.30;99.90
16846;DHT22;8539;53.188;8.696;2023-11-22T03:29:51;0.30;99.90
16846;DHT22;8539;53.188;8.696;2023-11-22T03:32:17;0.20;99.90
16846;DHT22;8539;53.188;8.696;2023-11-22T03:34:43;0.20;99.90
16846;DHT22;8539;53.188;8.696;2023-11-22T03:37:10;0.20;99.90
16846;DHT22;8539;53.188;8.696;2023-11-22T03:39:36;0.20;99.90
16846;DHT22;8539;53.188;8.696;2023-11-22T03:42:03;0.10;99.90
16846;DHT22;8539;53.188;8.696;2023-11-22T03:44:29;0.10;99.90
16846;DHT22;8539;53.188;8.696;2023-11-22T03:46:56;0.10;99.90
16846;DHT22;8539;53.188;8.696;2023-11-22T03:49:22;0.10;99.90
16846;DHT22;8539;53.188;8.696;2023-11-22T03:51:48;0.00;99.90
16846;DHT22;8539;53.188;8.696;2023-11-22T03:54:14;0.00;99.90
16846;DHT22;8539;53.188;8.696;2023-11-22T03:56:40;0.00;99.90
16846;DHT22;8539;53.188;8.696;2023-11-22T03:59:06;-0.10;99.90
16846;DHT22;8539;53.188;8.696;2023-11-22T04:01:32;-0.10;99.90
16846;DHT22;8539;53.188;8.696;2023-11-22T04:03:58;-0.10;99.90
16846;DHT22;8539;53.188;8.696;2023-11-22T04:06:24;-0.10;99.90
16846;DHT22;8539;53.188;8.696;2023-11-22T04:08:56;-0.10;99.90
16846;DHT22;8539;53.188;8.696;2023-11-22T04:11:24;-0.10;99.90
16846;DHT22;8539;53.188;8.696;2023-11-22T04:13:51;-0.10;99.90
16846;DHT22;8539;53.188;8.696;2023-11-22T04:16:18;-0.10;99.90
16846;DHT22;8539;53.188;8.696;2023-11-22T04:18:44;-0.20;99.90
16846;DHT22;8539;53.188;8.696;2023-11-22T04:21:10;-0.20;99.90
16846;DHT22;8539;53.188;8.696;2023-11-22T04:23:37;-0.10;99.90
16846;DHT22;8539;53.188;8.696;2023-11-22T04:26:03;-0.10;99.90
16846;DHT22;8539;53.188;8.696;2023-11-22T04:28:33;-0.10;99.90
16846;DHT22;8539;53.188;8.696;2023-11-22T04:31:02;0.00;99.90
16846;DHT22;8539;53.188;8.696;2023-11-22T04:33:28;-0.10;99.90
16846;DHT22;8539;53.188;8.696;2023-11-22T04:35:54;-0.10;99.90
16846;DHT22;8539;53.188;8.696;2023-11-22T04:38:21;-0.10;99.90
16846;DHT22;8539;53.188;8.696;2023-11-22T04:40:47;-0.10;99.90
16846;DHT22;8539;53.188;8.696;2023-11-22T04:43:14;-0.10;99.90
16846;DHT22;8539;53.188;8.696;2023-11-22T04:45:40;-0.10;99.90
16846;DHT22;8539;53.188;8.696;2023-11-22T04:48:06;-0.10;99.90
16846;DHT22;8539;53.188;8.696;2023-11-22T04:50:33;-0.20;99.90
16846;DHT22;8539;53.188;8.696;2023-11-22T04:53:00;-0.10;99.90
16846;DHT22;8539;53.188;8.696;2023-11-22T04:55:27;-0.20;99.90
16846;DHT22;8539;53.188;8.696;2023-11-22T04:57:54;-0.20;99.90
16846;DHT22;8539;53.188;8.696;2023-11-22T05:00:21;-0.30;99.90
16846;DHT22;8539;53.188;8.696;2023-11-22T05:02:48;-0.30;99.90
16846;DHT22;8539;53.188;8.696;2023-11-22T05:05:15;-0.30;99.90
16846;DHT22;8539;53.188;8.696;2023-11-22T05:07:41;-0.30;99.90
16846;DHT22;8539;53.188;8.696;2023-11-22T05:10:07;-0.30;99.90
16846;DHT22;8539;53.188;8.696;2023-11-22T05:12:36;-0.40;99.90
16846;DHT22;8539;53.188;8.696;2023-11-22T05:15:03;-0.40;99.90
16846;DHT22;8539;53.188;8.696;2023-11-22T05:17:31;-0.40;99.90
16846;DHT22;8539;53.188;8.696;2023-11-22T05:19:58;-0.40;99.90
16846;DHT22;8539;53.188;8.696;2023-11-22T05:22:24;-0.50;99.90
16846;DHT22;8539;53.188;8.696;2023-11-22T05:24:50;-0.40;99.90
16846;DHT22;8539;53.188;8.696;2023-11-22T05:27:17;-0.40;99.90
16846;DHT22;8539;53.188;8.696;2023-11-22T05:29:43;-0.40;99.90
16846;DHT22;8539;53.188;8.696;2023-11-22T05:32:09;-0.40;99.90
16846;DHT22;8539;53.188;8.696;2023-11-22T05:34:35;-0.50;99.90
16846;DHT22;8539;53.188;8.696;2023-11-22T05:37:02;-0.50;99.90
16846;DHT22;8539;53.188;8.696;2023-11-22T05:39:28;-0.50;99.90
16846;DHT22;8539;53.188;8.696;2023-11-22T05:41:54;-0.50;99.90
16846;DHT22;8539;53.188;8.696;2023-11-22T05:44:20;-0.60;99.90
16846;DHT22;8539;53.188;8.696;2023-11-22T05:46:48;-0.60;99.90
16846;DHT22;8539;53.188;8.696;2023-11-22T05:49:14;-0.60;99.90
16846;DHT22;8539;53.188;8.696;2023-11-22T05:51:40;-0.60;99.90
16846;DHT22;8539;53.188;8.696;2023-11-22T05:54:07;-0.70;99.90
16846;DHT22;8539;53.188;8.696;2023-11-22T05:56:33;-0.70;99.90
16846;DHT22;8539;53.188;8.696;2023-11-22T05:58:59;-0.70;99.90
16846;DHT22;8539;53.188;8.696;2023-11-22T06:01:25;-0.60;99.90
16846;DHT22;8539;53.188;8.696;2023-11-22T06:03:54;-0.70;99.90
16846;DHT22;8539;53.188;8.696;2023-11-22T06:06:20;-0.70;99.90
16846;DHT22;8539;53.188;8.696;2023-11-22T06:08:49;-0.70;99.90
16846;DHT22;8539;53.188;8.696;2023-11-22T06:11:15;-0.70;99.90
16846;DHT22;8539;53.188;8.696;2023-11-22T06:13:42;-0.70;99.90
16846;DHT22;8539;53.188;8.696;2023-11-22T06:16:13;-0.70;99.90
16846;DHT22;8539;53.188;8.696;2023-11-22T06:18:39;-0.70;99.90
16846;DHT22;8539;53.188;8.696;2023-11-22T06:21:07;-0.70;99.90
16846;DHT22;8539;53.188;8.696;2023-11-22T06:23:37;-0.70;99.90
16846;DHT22;8539;53.188;8.696;2023-11-22T06:28:58;-0.70;99.90
16846;DHT22;8539;53.188;8.696;2023-11-22T06:31:25;-0.60;99.90
16846;DHT22;8539;53.188;8.696;2023-11-22T06:33:54;-0.60;99.90
16846;DHT22;8539;53.188;8.696;2023-11-22T06:36:24;-0.60;99.90
16846;DHT22;8539;53.188;8.696;2023-11-22T06:39:00;-0.60;99.90
16846;DHT22;8539;53.188;8.696;2023-11-22T06:41:29;-0.60;99.90
16846;DHT22;8539;53.188;8.696;2023-11-22T06:43:58;-0.60;99.90
16846;DHT22;8539;53.188;8.696;2023-11-22T06:46:30;-0.50;99.90
16846;DHT22;8539;53.188;8.696;2023-11-22T06:49:03;-0.50;99.90
16846;DHT22;8539;53.188;8.696;2023-11-22T06:51:29;-0.40;99.90
16846;DHT22;8539;53.188;8.696;2023-11-22T06:53:55;-0.40;99.90
16846;DHT22;8539;53.188;8.696;2023-11-22T06:56:22;-0.40;99.90
16846;DHT22;8539;53.188;8.696;2023-11-22T06:58:49;-0.30;99.90
16846;DHT22;8539;53.188;8.696;2023-11-22T07:01:16;-0.30;99.90
16846;DHT22;8539;53.188;8.696;2023-11-22T07:03:42;-0.30;99.90
16846;DHT22;8539;53.188;8.696;2023-11-22T07:06:08;-0.20;99.90
16846;DHT22;8539;53.188;8.696;2023-11-22T07:08:35;-0.20;99.90
16846;DHT22;8539;53.188;8.696;2023-11-22T07:11:02;-0.20;99.90
16846;DHT22;8539;53.188;8.696;2023-11-22T07:13:29;0.00;99.90
16846;DHT22;8539;53.188;8.696;2023-11-22T07:15:55;-0.10;99.90
16846;DHT22;8539;53.188;8.696;2023-11-22T07:18:21;0.00;99.90
16846;DHT22;8539;53.188;8.696;2023-11-22T07:20:50;0.00;99.90
16846;DHT22;8539;53.188;8.696;2023-11-22T07:23:16;0.10;99.90
16846;DHT22;8539;53.188;8.696;2023-11-22T07:25:42;0.10;99.90
16846;DHT22;8539;53.188;8.696;2023-11-22T07:28:09;0.10;99.90
16846;DHT22;8539;53.188;8.696;2023-11-22T07:30:35;0.10;99.90
16846;DHT22;8539;53.188;8.696;2023-11-22T07:33:04;0.10;99.90
16846;DHT22;8539;53.188;8.696;2023-11-22T07:35:32;0.20;99.90
16846;DHT22;8539;53.188;8.696;2023-11-22T07:37:58;0.20;99.90
16846;DHT22;8539;53.188;8.696;2023-11-22T07:40:24;0.20;99.90
16846;DHT22;8539;53.188;8.696;2023-11-22T07:42:50;0.20;99.90
16846;DHT22;8539;53.188;8.696;2023-11-22T07:45:16;0.30;99.90
16846;DHT22;8539;53.188;8.696;2023-11-22T07:47:42;0.30;99.90
16846;DHT22;8539;53.188;8.696;2023-11-22T07:50:10;0.40;99.90
16846;DHT22;8539;53.188;8.696;2023-11-22T07:52:37;0.40;99.90
16846;DHT22;8539;53.188;8.696;2023-11-22T07:55:06;0.50;99.90
16846;DHT22;8539;53.188;8.696;2023-11-22T07:57:35;0.50;99.90
16846;DHT22;8539;53.188;8.696;2023-11-22T08:00:02;0.50;99.90
16846;DHT22;8539;53.188;8.696;2023-11-22T08:02:34;0.60;99.90
16846;DHT22;8539;53.188;8.696;2023-11-22T08:05:00;0.60;99.90
16846;DHT22;8539;53.188;8.696;2023-11-22T08:07:29;0.60;99.90
16846;DHT22;8539;53.188;8.696;2023-11-22T08:09:55;0.70;99.90
16846;DHT22;8539;53.188;8.696;2023-11-22T08:12:21;0.70;99.90
16846;DHT22;8539;53.188;8.696;2023-11-22T08:14:48;0.80;99.90
16846;DHT22;8539;53.188;8.696;2023-11-22T08:17:15;0.80;99.90
16846;DHT22;8539;53.188;8.696;2023-11-22T08:19:41;0.90;99.90
16846;DHT22;8539;53.188;8.696;2023-11-22T08:22:07;1.00;99.90
16846;DHT22;8539;53.188;8.696;2023-11-22T08:24:34;0.90;99.90
16846;DHT22;8539;53.188;8.696;2023-11-22T08:27:00;1.00;99.90
16846;DHT22;8539;53.188;8.696;2023-11-22T08:29:26;1.10;99.90
16846;DHT22;8539;53.188;8.696;2023-11-22T08:31:52;1.10;99.90
16846;DHT22;8539;53.188;8.696;2023-11-22T08:34:18;1.10;99.90
16846;DHT22;8539;53.188;8.696;2023-11-22T08:36:44;1.10;99.90
16846;DHT22;8539;53.188;8.696;2023-11-22T08:39:10;1.20;99.90
16846;DHT22;8539;53.188;8.696;2023-11-22T08:41:36;1.20;99.90
16846;DHT22;8539;53.188;8.696;2023-11-22T08:44:04;1.30;99.90
16846;DHT22;8539;53.188;8.696;2023-11-22T08:46:30;1.30;99.90
16846;DHT22;8539;53.188;8.696;2023-11-22T08:48:56;1.30;99.90
16846;DHT22;8539;53.188;8.696;2023-11-22T08:51:22;1.30;99.90
16846;DHT22;8539;53.188;8.696;2023-11-22T08:53:48;1.40;99.90
16846;DHT22;8539;53.188;8.696;2023-11-22T08:56:14;1.40;99.90
16846;DHT22;8539;53.188;8.696;2023-11-22T08:58:41;1.50;99.90
16846;DHT22;8539;53.188;8.696;2023-11-22T09:01:08;1.60;99.90
16846;DHT22;8539;53.188;8.696;2023-11-22T09:03:35;1.60;99.90
16846;DHT22;8539;53.188;8.696;2023-11-22T09:06:01;1.70;99.90
16846;DHT22;8539;53.188;8.696;2023-11-22T09:08:28;1.70;99.90
16846;DHT22;8539;53.188;8.696;2023-11-22T09:10:55;1.70;99.90
16846;DHT22;8539;53.188;8.696;2023-11-22T09:13:22;1.80;99.90
16846;DHT22;8539;53.188;8.696;2023-11-22T09:15:48;1.80;99.90
16846;DHT22;8539;53.188;8.696;2023-11-22T09:18:14;1.90;99.90
16846;DHT22;8539;53.188;8.696;2023-11-22T09:20:42;1.90;99.90
16846;DHT22;8539;53.188;8.696;2023-11-22T09:23:11;2.00;99.90
16846;DHT22;8539;53.188;8.696;2023-11-22T09:25:37;2.00;99.90
16846;DHT22;8539;53.188;8.696;2023-11-22T09:28:03;2.00;99.90
16846;DHT22;8539;53.188;8.696;2023-11-22T09:30:31;2.10;99.90
16846;DHT22;8539;53.188;8.696;2023-11-22T09:33:07;2.20;99.90
16846;DHT22;8539;53.188;8.696;2023-11-22T09:35:33;2.20;99.90
16846;DHT22;8539;53.188;8.696;2023-11-22T09:38:02;2.30;99.90
16846;DHT22;8539;53.188;8.696;2023-11-22T09:40:29;2.40;99.90
16846;DHT22;8539;53.188;8.696;2023-11-22T09:42:58;2.40;99.90
16846;DHT22;8539;53.188;8.696;2023-11-22T09:45:26;2.50;99.90
16846;DHT22;8539;53.188;8.696;2023-11-22T09:47:52;2.60;99.90
16846;DHT22;8539;53.188;8.696;2023-11-22T09:50:40;2.60;99.90
16846;DHT22;8539;53.188;8.696;2023-11-22T09:53:25;2.70;99.90
16846;DHT22;8539;53.188;8.696;2023-11-22T09:55:51;2.80;99.90
16846;DHT22;8539;53.188;8.696;2023-11-22T09:58:19;2.90;99.90
16846;DHT22;8539;53.188;8.696;2023-11-22T10:00:46;2.90;99.90
16846;DHT22;8539;53.188;8.696;2023-11-22T10:03:13;3.00;99.90
16846;DHT22;8539;53.188;8.696;2023-11-22T10:05:42;3.10;99.90
16846;DHT22;8539;53.188;8.696;2023-11-22T10:08:11;3.10;99.90
16846;DHT22;8539;53.188;8.696;2023-11-22T10:10:37;3.20;99.90
16846;DHT22;8539;53.188;8.696;2023-11-22T10:13:04;3.20;99.90
16846;DHT22;8539;53.188;8.696;2023-11-22T10:15:30;3.20;99.90
16846;DHT22;8539;53.188;8.696;2023-11-22T10:17:58;3.20;99.90
16846;DHT22;8539;53.188;8.696;2023-11-22T10:20:37;3.20;99.90
16846;DHT22;8539;53.188;8.696;2023-11-22T10:23:04;3.30;99.90
16846;DHT22;8539;53.188;8.696;2023-11-22T10:25:35;3.40;99.90
16846;DHT22;8539;53.188;8.696;2023-11-22T10:28:01;3.40;99.90
16846;DHT22;8539;53.188;8.696;2023-11-22T10:30:27;3.50;99.90
16846;DHT22;8539;53.188;8.696;2023-11-22T10:32:54;3.50;99.90
16846;DHT22;8539;53.188;8.696;2023-11-22T10:35:21;3.60;99.90
16846;DHT22;8539;53.188;8.696;2023-11-22T10:37:48;3.70;99.90
16846;DHT22;8539;53.188;8.696;2023-11-22T10:40:14;3.70;99.90
16846;DHT22;8539;53.188;8.696;2023-11-22T10:42:41;3.70;99.90
16846;DHT22;8539;53.188;8.696;2023-11-22T10:45:12;3.80;99.90
16846;DHT22;8539;53.188;8.696;2023-11-22T10:47:39;3.80;99.90
16846;DHT22;8539;53.188;8.696;2023-11-22T10:50:07;3.80;99.90
16846;DHT22;8539;53.188;8.696;2023-11-22T10:52:35;3.80;99.90
16846;DHT22;8539;53.188;8.696;2023-11-22T10:55:05;3.80;99.90
16846;DHT22;8539;53.188;8.696;2023-11-22T10:57:45;3.90;99.90
16846;DHT22;8539;53.188;8.696;2023-11-22T11:00:15;3.90;99.90
16846;DHT22;8539;53.188;8.696;2023-11-22T11:02:45;4.00;99.90
16846;DHT22;8539;53.188;8.696;2023-11-22T11:05:21;4.00;99.90
16846;DHT22;8539;53.188;8.696;2023-11-22T11:08:11;4.00;99.90
16846;DHT22;8539;53.188;8.696;2023-11-22T11:10:43;4.10;99.90
16846;DHT22;8539;53.188;8.696;2023-11-22T11:13:10;4.10;99.90
16846;DHT22;8539;53.188;8.696;2023-11-22T11:15:38;4.30;99.90
16846;DHT22;8539;53.188;8.696;2023-11-22T11:18:06;4.50;99.90
16846;DHT22;8539;53.188;8.696;2023-11-22T11:20:44;4.70;99.90
16846;DHT22;8539;53.188;8.696;2023-11-22T11:23:14;4.90;99.90
16846;DHT22;8539;53.188;8.696;2023-11-22T11:25:41;5.20;99.90
16846;DHT22;8539;53.188;8.696;2023-11-22T11:28:10;5.50;99.90
16846;DHT22;8539;53.188;8.696;2023-11-22T11:30:47;5.80;99.90
16846;DHT22;8539;53.188;8.696;2023-11-22T11:33:18;5.90;99.90
16846;DHT22;8539;53.188;8.696;2023-11-22T11:35:49;6.00;99.90
16846;DHT22;8539;53.188;8.696;2023-11-22T11:38:17;6.10;99.90
16846;DHT22;8539;53.188;8.696;2023-11-22T11:40:46;6.10;99.90
16846;DHT22;8539;53.188;8.696;2023-11-22T11:43:13;6.10;99.90
16846;DHT22;8539;53.188;8.696;2023-11-22T11:45:40;6.00;99.90
16846;DHT22;8539;53.188;8.696;2023-11-22T11:48:15;5.90;99.90
16846;DHT22;8539;53.188;8.696;2023-11-22T11:50:42;5.80;99.90
16846;DHT22;8539;53.188;8.696;2023-11-22T11:53:11;5.70;99.90
16846;DHT22;8539;53.188;8.696;2023-11-22T11:55:38;5.50;99.90
16846;DHT22;8539;53.188;8.696;2023-11-22T11:58:07;5.30;99.90
16846;DHT22;8539;53.188;8.696;2023-11-22T12:00:37;5.20;99.90
16846;DHT22;8539;53.188;8.696;2023-11-22T12:03:07;5.10;99.90
16846;DHT22;8539;53.188;8.696;2023-11-22T12:05:39;5.00;99.90
16846;DHT22;8539;53.188;8.696;2023-11-22T12:08:05;4.90;99.90
16846;DHT22;8539;53.188;8.696;2023-11-22T12:10:31;4.80;99.90
16846;DHT22;8539;53.188;8.696;2023-11-22T12:12:58;4.80;99.90
16846;DHT22;8539;53.188;8.696;2023-11-22T12:15:25;4.80;99.90
16846;DHT22;8539;53.188;8.696;2023-11-22T12:17:51;4.80;99.90
16846;DHT22;8539;53.188;8.696;2023-11-22T12:20:20;4.80;99.90
16846;DHT22;8539;53.188;8.696;2023-11-22T12:22:47;4.80;99.90
16846;DHT22;8539;53.188;8.696;2023-11-22T12:25:14;4.80;99.90
16846;DHT22;8539;53.188;8.696;2023-11-22T12:27:44;4.90;99.90
16846;DHT22;8539;53.188;8.696;2023-11-22T12:30:32;4.90;99.90
16846;DHT22;8539;53.188;8.696;2023-11-22T12:35:29;4.90;99.90
16846;DHT22;8539;53.188;8.696;2023-11-22T12:37:58;4.90;99.90
16846;DHT22;8539;53.188;8.696;2023-11-22T12:40:30;5.00;99.90
16846;DHT22;8539;53.188;8.696;2023-11-22T12:43:00;4.90;99.90
16846;DHT22;8539;53.188;8.696;2023-11-22T12:45:27;4.90;99.90
16846;DHT22;8539;53.188;8.696;2023-11-22T12:47:55;4.90;99.90
16846;DHT22;8539;53.188;8.696;2023-11-22T12:50:31;4.90;99.90
16846;DHT22;8539;53.188;8.696;2023-11-22T12:53:17;4.80;99.90
16846;DHT22;8539;53.188;8.696;2023-11-22T12:55:51;4.80;99.90
16846;DHT22;8539;53.188;8.696;2023-11-22T12:58:19;4.80;99.90
16846;DHT22;8539;53.188;8.696;2023-11-22T13:00:46;4.80;99.90
16846;DHT22;8539;53.188;8.696;2023-11-22T13:03:13;4.80;99.90
16846;DHT22;8539;53.188;8.696;2023-11-22T13:05:40;4.80;99.90
16846;DHT22;8539;53.188;8.696;2023-11-22T13:08:13;4.80;99.90
16846;DHT22;8539;53.188;8.696;2023-11-22T13:10:43;4.70;99.90
16846;DHT22;8539;53.188;8.696;2023-11-22T13:13:09;4.80;99.90
16846;DHT22;8539;53.188;8.696;2023-11-22T13:15:35;4.70;99.90
16846;DHT22;8539;53.188;8.696;2023-11-22T13:18:02;4.70;99.90
16846;DHT22;8539;53.188;8.696;2023-11-22T13:20:28;4.70;99.90
16846;DHT22;8539;53.188;8.696;2023-11-22T13:22:54;4.70;99.90
16846;DHT22;8539;53.188;8.696;2023-11-22T13:25:22;4.60;99.90
16846;DHT22;8539;53.188;8.696;2023-11-22T13:27:50;4.50;99.90
16846;DHT22;8539;53.188;8.696;2023-11-22T13:30:18;4.50;99.90
16846;DHT22;8539;53.188;8.696;2023-11-22T13:32:54;4.40;99.90
16846;DHT22;8539;53.188;8.696;2023-11-22T13:35:24;4.40;99.90
16846;DHT22;8539;53.188;8.696;2023-11-22T13:37:53;4.30;99.90
16846;DHT22;8539;53.188;8.696;2023-11-22T13:40:20;4.30;99.90
16846;DHT22;8539;53.188;8.696;2023-11-22T13:42:50;4.20;99.90
16846;DHT22;8539;53.188;8.696;2023-11-22T13:45:18;4.20;99.90
16846;DHT22;8539;53.188;8.696;2023-11-22T13:47:46;4.20;99.90
16846;DHT22;8539;53.188;8.696;2023-11-22T13:50:17;4.10;99.90
16846;DHT22;8539;53.188;8.696;2023-11-22T13:52:51;4.10;99.90
16846;DHT22;8539;53.188;8.696;2023-11-22T13:55:17;4.10;99.90
16846;DHT22;8539;53.188;8.696;2023-11-22T13:57:59;4.00;99.90
16846;DHT22;8539;53.188;8.696;2023-11-22T14:00:27;4.00;99.90
16846;DHT22;8539;53.188;8.696;2023-11-22T14:02:58;4.00;99.90
16846;DHT22;8539;53.188;8.696;2023-11-22T14:05:31;4.00;99.90
16846;DHT22;8539;53.188;8.696;2023-11-22T14:07:57;3.90;99.90
16846;DHT22;8539;53.188;8.696;2023-11-22T14:10:24;4.00;99.90
16846;DHT22;8539;53.188;8.696;2023-11-22T14:12:50;3.90;99.90
16846;DHT22;8539;53.188;8.696;2023-11-22T14:15:18;3.90;99.90
16846;DHT22;8539;53.188;8.696;2023-11-22T14:17:46;3.90;99.90
16846;DHT22;8539;53.188;8.696;2023-11-22T14:20:16;3.90;99.90
16846;DHT22;8539;53.188;8.696;2023-11-22T14:22:42;3.90;99.90
16846;DHT22;8539;53.188;8.696;2023-11-22T14:25:12;3.80;99.90
16846;DHT22;8539;53.188;8.696;2023-11-22T14:27:44;3.80;99.90
16846;DHT22;8539;53.188;8.696;2023-11-22T14:30:11;3.80;99.90
16846;DHT22;8539;53.188;8.696;2023-11-22T14:32:40;3.80;99.90
16846;DHT22;8539;53.188;8.696;2023-11-22T14:35:08;3.80;99.90
16846;DHT22;8539;53.188;8.696;2023-11-22T14:37:35;3.80;99.90
16846;DHT22;8539;53.188;8.696;2023-11-22T14:40:03;3.80;99.90
16846;DHT22;8539;53.188;8.696;2023-11-22T14:42:30;3.80;99.90
16846;DHT22;8539;53.188;8.696;2023-11-22T14:44:57;3.80;99.90
16846;DHT22;8539;53.188;8.696;2023-11-22T14:47:23;3.70;99.90
16846;DHT22;8539;53.188;8.696;2023-11-22T14:49:51;3.70;99.90
16846;DHT22;8539;53.188;8.696;2023-11-22T14:52:18;3.70;99.90
16846;DHT22;8539;53.188;8.696;2023-11-22T14:54:45;3.70;99.90
16846;DHT22;8539;53.188;8.696;2023-11-22T14:57:12;3.70;99.90
16846;DHT22;8539;53.188;8.696;2023-11-22T14:59:39;3.70;99.90
16846;DHT22;8539;53.188;8.696;2023-11-22T15:02:05;3.60;99.90
16846;DHT22;8539;53.188;8.696;2023-11-22T15:04:34;3.60;99.90
16846;DHT22;8539;53.188;8.696;2023-11-22T15:07:03;3.60;99.90
16846;DHT22;8539;53.188;8.696;2023-11-22T15:09:30;3.60;99.90
16846;DHT22;8539;53.188;8.696;2023-11-22T15:11:59;3.90;99.90
16846;DHT22;8539;53.188;8.696;2023-11-22T15:14:33;3.60;99.90
16846;DHT22;8539;53.188;8.696;2023-11-22T15:16:59;3.50;99.90
16846;DHT22;8539;53.188;8.696;2023-11-22T15:19:30;3.50;99.90
16846;DHT22;8539;53.188;8.696;2023-11-22T15:21:56;3.50;99.90
16846;DHT22;8539;53.188;8.696;2023-11-22T15:24:22;3.50;99.90
16846;DHT22;8539;53.188;8.696;2023-11-22T15:26:49;3.40;99.90
16846;DHT22;8539;53.188;8.696;2023-11-22T15:29:15;3.40;99.90
16846;DHT22;8539;53.188;8.696;2023-11-22T15:31:43;3.50;99.90
16846;DHT22;8539;53.188;8.696;2023-11-22T15:34:10;3.40;99.90
16846;DHT22;8539;53.188;8.696;2023-11-22T15:36:42;3.40;99.90
16846;DHT22;8539;53.188;8.696;2023-11-22T15:39:08;3.40;99.90
16846;DHT22;8539;53.188;8.696;2023-11-22T15:41:38;3.40;99.90
16846;DHT22;8539;53.188;8.696;2023-11-22T15:44:05;3.40;99.90
16846;DHT22;8539;53.188;8.696;2023-11-22T15:46:31;3.40;99.90
16846;DHT22;8539;53.188;8.696;2023-11-22T15:48:58;3.30;99.90
16846;DHT22;8539;53.188;8.696;2023-11-22T15:51:24;3.40;99.90
16846;DHT22;8539;53.188;8.696;2023-11-22T15:53:50;3.40;99.90
16846;DHT22;8539;53.188;8.696;2023-11-22T15:56:16;3.30;99.90
16846;DHT22;8539;53.188;8.696;2023-11-22T15:58:43;3.40;99.90
16846;DHT22;8539;53.188;8.696;2023-11-22T16:01:11;3.30;99.90
16846;DHT22;8539;53.188;8.696;2023-11-22T16:03:38;3.30;99.90
16846;DHT22;8539;53.188;8.696;2023-11-22T16:06:06;3.30;99.90
16846;DHT22;8539;53.188;8.696;2023-11-22T16:08:34;3.30;99.90
16846;DHT22;8539;53.188;8.696;2023-11-22T16:11:01;3.30;99.90